LOT3LD EPWA-LYPG
Flight info
| Callsign | LOT3LD |
|---|---|
| Flight time | 1h 36m |
| Altitude | 36000 |
| Route | EVINA M66 BABKO/N0435F370 DCT KEROP DCT MOJ |
| Aircraft | B738/M-SDE2E3FGIJ1RWY/LB1 |
Departure
| Time | 2026-05-05 07:17 |
|---|---|
| Airport | Warsaw Chopin Airport (EPWA) |
Arrival
| Time | 2026-05-05 08:53 |
|---|---|
| Airport | Podgorica Airport / Podgorica Golubovci Airbase (LYPG) |
| Time | Latitude | Longitude | Altitude | Speed | Heading |
|---|---|---|---|---|---|
| 2026-05-05 06:33 | 52.16941 | 20.96892 | 334 ft | 0 kts | 276° |
| 2026-05-05 07:08 | 52.16942 | 20.96888 | 338 ft | 2 kts | 276° |
| 2026-05-05 07:09 | 52.16940 | 20.96846 | 337 ft | 5 kts | 253° |
| 2026-05-05 07:09 | 52.16907 | 20.96822 | 335 ft | 6 kts | 163° |
| 2026-05-05 07:09 | 52.16868 | 20.96853 | 336 ft | 7 kts | 152° |
| 2026-05-05 07:09 | 52.16813 | 20.96901 | 336 ft | 12 kts | 152° |
| 2026-05-05 07:10 | 52.16733 | 20.96971 | 337 ft | 14 kts | 152° |
| 2026-05-05 07:10 | 52.16663 | 20.97055 | 337 ft | 12 kts | 120° |
| 2026-05-05 07:10 | 52.16632 | 20.97167 | 334 ft | 10 kts | 114° |
| 2026-05-05 07:10 | 52.16602 | 20.97272 | 335 ft | 10 kts | 114° |
| 2026-05-05 07:11 | 52.16574 | 20.97373 | 335 ft | 10 kts | 114° |
| 2026-05-05 07:11 | 52.16546 | 20.97473 | 338 ft | 10 kts | 115° |
| 2026-05-05 07:11 | 52.16518 | 20.97569 | 335 ft | 9 kts | 115° |
| 2026-05-05 07:11 | 52.16492 | 20.97664 | 337 ft | 9 kts | 114° |
| 2026-05-05 07:12 | 52.16466 | 20.97756 | 337 ft | 9 kts | 114° |
| 2026-05-05 07:12 | 52.16419 | 20.97804 | 338 ft | 9 kts | 189° |
| 2026-05-05 07:12 | 52.16388 | 20.97783 | 338 ft | 0 kts | 205° |
| 2026-05-05 07:15 | 52.16375 | 20.97774 | 337 ft | 5 kts | 205° |
| 2026-05-05 07:15 | 52.16327 | 20.97738 | 335 ft | 8 kts | 205° |
| 2026-05-05 07:15 | 52.16303 | 20.97690 | 335 ft | 6 kts | 268° |
| 2026-05-05 07:16 | 52.16319 | 20.97623 | 336 ft | 8 kts | 294° |
| 2026-05-05 07:16 | 52.16368 | 20.97444 | 335 ft | 43 kts | 294° |
| 2026-05-05 07:16 | 52.16602 | 20.96610 | 339 ft | 117 kts | 294° |
| 2026-05-05 07:16 | 52.17044 | 20.95040 | 380 ft | 175 kts | 294° |
| 2026-05-05 07:17 | 52.17540 | 20.93277 | 1165 ft | 172 kts | 295° |
| 2026-05-05 07:17 | 52.18054 | 20.91494 | 1981 ft | 179 kts | 295° |
| 2026-05-05 07:17 | 52.18308 | 20.89413 | 2400 ft | 206 kts | 262° |
| 2026-05-05 07:17 | 52.17912 | 20.87064 | 2945 ft | 219 kts | 251° |
| 2026-05-05 07:18 | 52.17495 | 20.84600 | 3410 ft | 236 kts | 255° |
| 2026-05-05 07:18 | 52.17107 | 20.81832 | 3817 ft | 261 kts | 256° |
| 2026-05-05 07:18 | 52.16716 | 20.78912 | 4783 ft | 263 kts | 257° |
| 2026-05-05 07:18 | 52.16340 | 20.76016 | 5790 ft | 262 kts | 257° |
| 2026-05-05 07:19 | 52.15951 | 20.73116 | 6664 ft | 263 kts | 253° |
| 2026-05-05 07:19 | 52.15119 | 20.70474 | 7486 ft | 264 kts | 230° |
| 2026-05-05 07:19 | 52.13771 | 20.68454 | 8405 ft | 265 kts | 219° |
| 2026-05-05 07:19 | 52.12308 | 20.66607 | 9266 ft | 267 kts | 218° |
| 2026-05-05 07:20 | 52.10825 | 20.64775 | 10088 ft | 269 kts | 218° |
| 2026-05-05 07:20 | 52.09283 | 20.62864 | 10442 ft | 291 kts | 218° |
| 2026-05-05 07:20 | 52.07612 | 20.60780 | 10650 ft | 314 kts | 218° |
| 2026-05-05 07:20 | 52.05852 | 20.58576 | 11185 ft | 324 kts | 218° |
| 2026-05-05 07:21 | 52.04063 | 20.56330 | 11978 ft | 326 kts | 219° |
| 2026-05-05 07:21 | 52.02265 | 20.54068 | 12796 ft | 329 kts | 219° |
| 2026-05-05 07:21 | 52.00449 | 20.51782 | 13619 ft | 332 kts | 219° |
| 2026-05-05 07:21 | 51.98617 | 20.49477 | 14341 ft | 336 kts | 219° |
| 2026-05-05 07:22 | 51.96750 | 20.47131 | 15012 ft | 342 kts | 219° |
| 2026-05-05 07:22 | 51.94735 | 20.45023 | 15700 ft | 350 kts | 206° |
| 2026-05-05 07:22 | 51.92365 | 20.43979 | 16403 ft | 359 kts | 190° |
| 2026-05-05 07:22 | 51.89860 | 20.43554 | 17101 ft | 365 kts | 188° |
| 2026-05-05 07:23 | 51.87310 | 20.43210 | 17765 ft | 371 kts | 187° |
| 2026-05-05 07:23 | 51.84725 | 20.42871 | 18405 ft | 375 kts | 187° |
| 2026-05-05 07:23 | 51.82107 | 20.42513 | 19026 ft | 379 kts | 187° |
| 2026-05-05 07:23 | 51.79472 | 20.42135 | 19661 ft | 382 kts | 188° |
| 2026-05-05 07:24 | 51.76814 | 20.41740 | 20285 ft | 385 kts | 188° |
| 2026-05-05 07:24 | 51.74134 | 20.41335 | 20885 ft | 389 kts | 188° |
| 2026-05-05 07:24 | 51.71429 | 20.40924 | 21468 ft | 392 kts | 188° |
| 2026-05-05 07:24 | 51.68699 | 20.40509 | 22054 ft | 396 kts | 188° |
| 2026-05-05 07:25 | 51.65941 | 20.40091 | 22622 ft | 400 kts | 187° |
| 2026-05-05 07:25 | 51.63163 | 20.39670 | 23172 ft | 403 kts | 187° |
| 2026-05-05 07:25 | 51.60353 | 20.39245 | 23689 ft | 407 kts | 187° |
| 2026-05-05 07:25 | 51.57529 | 20.38818 | 24179 ft | 409 kts | 187° |
| 2026-05-05 07:26 | 51.54693 | 20.38389 | 24676 ft | 411 kts | 187° |
| 2026-05-05 07:26 | 51.51835 | 20.37959 | 25152 ft | 413 kts | 187° |
| 2026-05-05 07:26 | 51.49933 | 20.37672 | 25450 ft | 415 kts | 187° |
| 2026-05-05 07:26 | 51.47044 | 20.37237 | 25898 ft | 418 kts | 188° |
| 2026-05-05 07:27 | 51.44148 | 20.36802 | 26345 ft | 420 kts | 188° |
| 2026-05-05 07:27 | 51.41225 | 20.36363 | 26787 ft | 423 kts | 188° |
| 2026-05-05 07:27 | 51.38302 | 20.35831 | 27213 ft | 424 kts | 193° |
| 2026-05-05 07:27 | 51.35458 | 20.34585 | 27612 ft | 424 kts | 200° |
| 2026-05-05 07:28 | 51.31743 | 20.32583 | 28158 ft | 427 kts | 201° |
| 2026-05-05 07:28 | 51.29844 | 20.31528 | 28419 ft | 428 kts | 201° |
| 2026-05-05 07:28 | 51.26098 | 20.29472 | 28933 ft | 432 kts | 201° |
| 2026-05-05 07:28 | 51.24168 | 20.28435 | 29188 ft | 434 kts | 201° |
| 2026-05-05 07:29 | 51.21295 | 20.26916 | 29557 ft | 436 kts | 200° |
| 2026-05-05 07:29 | 51.18415 | 20.25416 | 29998 ft | 436 kts | 200° |
| 2026-05-05 07:29 | 51.15529 | 20.23926 | 30458 ft | 434 kts | 200° |
| 2026-05-05 07:29 | 51.12665 | 20.22453 | 30933 ft | 432 kts | 200° |
| 2026-05-05 07:30 | 51.09807 | 20.20985 | 31347 ft | 431 kts | 200° |
| 2026-05-05 07:30 | 51.04104 | 20.18055 | 32152 ft | 430 kts | 200° |
| 2026-05-05 07:30 | 51.01260 | 20.16596 | 32588 ft | 428 kts | 200° |
| 2026-05-05 07:31 | 50.98428 | 20.15145 | 32990 ft | 427 kts | 200° |
| 2026-05-05 07:31 | 50.95607 | 20.13700 | 33398 ft | 426 kts | 200° |
| 2026-05-05 07:31 | 50.92782 | 20.12256 | 33802 ft | 425 kts | 200° |
| 2026-05-05 07:31 | 50.89972 | 20.10825 | 34174 ft | 424 kts | 200° |
| 2026-05-05 07:32 | 50.87162 | 20.09406 | 34492 ft | 423 kts | 200° |
| 2026-05-05 07:32 | 50.84390 | 20.08009 | 34759 ft | 424 kts | 200° |
| 2026-05-05 07:32 | 50.81582 | 20.06596 | 35061 ft | 423 kts | 200° |
| 2026-05-05 07:32 | 50.78778 | 20.05182 | 35372 ft | 423 kts | 200° |
| 2026-05-05 07:33 | 50.75982 | 20.03765 | 35673 ft | 422 kts | 200° |
| 2026-05-05 07:33 | 50.73211 | 20.02358 | 35924 ft | 423 kts | 200° |
| 2026-05-05 07:33 | 50.67562 | 19.99490 | 35919 ft | 428 kts | 200° |
| 2026-05-05 07:34 | 50.61927 | 19.96642 | 35910 ft | 422 kts | 200° |
| 2026-05-05 07:34 | 50.56358 | 19.93835 | 35928 ft | 420 kts | 200° |
| 2026-05-05 07:35 | 50.50789 | 19.91032 | 35928 ft | 420 kts | 200° |
| 2026-05-05 07:35 | 50.45219 | 19.88238 | 35924 ft | 420 kts | 200° |
| 2026-05-05 07:36 | 50.39642 | 19.85446 | 35935 ft | 421 kts | 200° |
| 2026-05-05 07:36 | 50.35582 | 19.83419 | 35932 ft | 421 kts | 200° |
| 2026-05-05 07:37 | 50.30228 | 19.80751 | 35931 ft | 422 kts | 200° |
| 2026-05-05 07:37 | 50.24621 | 19.77963 | 35930 ft | 423 kts | 200° |
| 2026-05-05 07:38 | 50.19010 | 19.75180 | 35935 ft | 423 kts | 200° |
| 2026-05-05 07:38 | 50.13393 | 19.72401 | 35941 ft | 424 kts | 200° |
| 2026-05-05 07:39 | 50.07767 | 19.69625 | 35939 ft | 424 kts | 200° |
| 2026-05-05 07:39 | 50.02137 | 19.66853 | 35900 ft | 425 kts | 200° |
| 2026-05-05 07:40 | 49.96502 | 19.64084 | 35926 ft | 425 kts | 200° |
| 2026-05-05 07:40 | 49.90861 | 19.61322 | 35927 ft | 425 kts | 200° |
| 2026-05-05 07:41 | 49.85196 | 19.58554 | 36085 ft | 430 kts | 200° |
| 2026-05-05 07:41 | 49.82346 | 19.57163 | 36411 ft | 429 kts | 200° |
| 2026-05-05 07:41 | 49.79504 | 19.55785 | 36758 ft | 427 kts | 199° |
| 2026-05-05 07:42 | 49.76674 | 19.54414 | 36944 ft | 428 kts | 199° |
| 2026-05-05 07:42 | 49.73778 | 19.53005 | 36933 ft | 432 kts | 200° |
| 2026-05-05 07:42 | 49.68046 | 19.50211 | 36868 ft | 432 kts | 200° |
| 2026-05-05 07:43 | 49.62302 | 19.47585 | 36899 ft | 425 kts | 193° |
| 2026-05-05 07:43 | 49.56380 | 19.47061 | 36962 ft | 430 kts | 180° |
| 2026-05-05 07:44 | 49.50331 | 19.47558 | 36947 ft | 434 kts | 179° |
| 2026-05-05 07:44 | 49.44290 | 19.48064 | 36953 ft | 436 kts | 180° |
| 2026-05-05 07:45 | 49.38217 | 19.48524 | 36959 ft | 438 kts | 180° |
| 2026-05-05 07:45 | 49.32129 | 19.48959 | 36962 ft | 439 kts | 180° |
| 2026-05-05 07:46 | 49.25979 | 19.49389 | 36941 ft | 440 kts | 180° |
| 2026-05-05 07:46 | 49.19890 | 19.49824 | 36933 ft | 436 kts | 180° |
| 2026-05-05 07:47 | 49.13857 | 19.50242 | 36985 ft | 432 kts | 180° |
| 2026-05-05 07:47 | 49.07858 | 19.50654 | 36982 ft | 431 kts | 180° |
| 2026-05-05 07:48 | 49.01861 | 19.51071 | 36982 ft | 431 kts | 180° |
| 2026-05-05 07:48 | 48.95873 | 19.51485 | 36996 ft | 431 kts | 180° |
| 2026-05-05 07:49 | 48.89866 | 19.51900 | 36987 ft | 432 kts | 180° |
| 2026-05-05 07:49 | 48.83842 | 19.52316 | 36989 ft | 434 kts | 180° |
| 2026-05-05 07:50 | 48.77805 | 19.52731 | 37002 ft | 435 kts | 180° |
| 2026-05-05 07:50 | 48.71745 | 19.53147 | 37016 ft | 437 kts | 180° |
| 2026-05-05 07:51 | 48.65615 | 19.53566 | 37004 ft | 438 kts | 180° |
| 2026-05-05 07:51 | 48.59524 | 19.53983 | 37017 ft | 439 kts | 180° |
| 2026-05-05 07:52 | 48.53420 | 19.54399 | 37005 ft | 439 kts | 180° |
| 2026-05-05 07:52 | 48.47276 | 19.54817 | 37006 ft | 439 kts | 180° |
| 2026-05-05 07:53 | 48.41171 | 19.55232 | 37002 ft | 439 kts | 180° |
| 2026-05-05 07:53 | 48.35072 | 19.55645 | 37012 ft | 439 kts | 179° |
| 2026-05-05 07:54 | 48.28974 | 19.56057 | 37010 ft | 438 kts | 179° |
| 2026-05-05 07:54 | 48.22881 | 19.56466 | 37008 ft | 438 kts | 179° |
| 2026-05-05 07:55 | 48.16790 | 19.56876 | 37012 ft | 438 kts | 179° |
| 2026-05-05 07:55 | 48.10699 | 19.57284 | 37003 ft | 438 kts | 179° |
| 2026-05-05 07:56 | 48.04565 | 19.57695 | 37012 ft | 438 kts | 179° |
| 2026-05-05 07:56 | 47.98472 | 19.58101 | 37008 ft | 439 kts | 179° |
| 2026-05-05 07:57 | 47.93402 | 19.58439 | 37009 ft | 439 kts | 179° |
| 2026-05-05 07:57 | 47.87299 | 19.58845 | 37009 ft | 439 kts | 179° |
| 2026-05-05 07:58 | 47.81198 | 19.59249 | 37012 ft | 439 kts | 179° |
| 2026-05-05 07:58 | 47.75085 | 19.59653 | 37014 ft | 440 kts | 179° |
| 2026-05-05 07:59 | 47.68969 | 19.60056 | 37015 ft | 440 kts | 179° |
| 2026-05-05 07:59 | 47.62856 | 19.60458 | 37019 ft | 440 kts | 179° |
| 2026-05-05 08:00 | 47.56736 | 19.60860 | 37022 ft | 440 kts | 179° |
| 2026-05-05 08:00 | 47.50613 | 19.61261 | 37022 ft | 440 kts | 179° |
| 2026-05-05 08:01 | 47.44486 | 19.61661 | 37009 ft | 441 kts | 179° |
| 2026-05-05 08:01 | 47.38378 | 19.62059 | 37021 ft | 441 kts | 179° |
| 2026-05-05 08:02 | 47.32241 | 19.62458 | 37024 ft | 442 kts | 179° |
| 2026-05-05 08:02 | 47.26100 | 19.62857 | 37018 ft | 442 kts | 179° |
| 2026-05-05 08:03 | 47.19942 | 19.63255 | 37021 ft | 443 kts | 179° |
| 2026-05-05 08:03 | 47.13786 | 19.63653 | 37034 ft | 443 kts | 179° |
| 2026-05-05 08:04 | 47.07593 | 19.64052 | 37043 ft | 443 kts | 179° |
| 2026-05-05 08:04 | 47.01437 | 19.64448 | 37046 ft | 443 kts | 179° |
| 2026-05-05 08:05 | 46.95278 | 19.64843 | 37047 ft | 443 kts | 179° |
| 2026-05-05 08:05 | 46.89123 | 19.65237 | 37048 ft | 443 kts | 179° |
| 2026-05-05 08:06 | 46.82968 | 19.65630 | 37021 ft | 443 kts | 179° |
| 2026-05-05 08:06 | 46.76812 | 19.66022 | 37023 ft | 443 kts | 179° |
| 2026-05-05 08:07 | 46.70656 | 19.66413 | 37026 ft | 443 kts | 179° |
| 2026-05-05 08:07 | 46.64499 | 19.66804 | 37028 ft | 443 kts | 179° |
| 2026-05-05 08:08 | 46.58338 | 19.67194 | 37031 ft | 443 kts | 179° |
| 2026-05-05 08:08 | 46.52176 | 19.67583 | 37035 ft | 443 kts | 179° |
| 2026-05-05 08:09 | 46.46009 | 19.67971 | 37035 ft | 443 kts | 179° |
| 2026-05-05 08:09 | 46.39801 | 19.68361 | 37033 ft | 444 kts | 179° |
| 2026-05-05 08:10 | 46.33631 | 19.68748 | 37038 ft | 444 kts | 179° |
| 2026-05-05 08:10 | 46.27460 | 19.69135 | 37033 ft | 444 kts | 179° |
| 2026-05-05 08:11 | 46.21285 | 19.69520 | 37032 ft | 444 kts | 179° |
| 2026-05-05 08:11 | 46.15106 | 19.69701 | 37026 ft | 444 kts | 183° |
| 2026-05-05 08:12 | 46.08939 | 19.69441 | 37033 ft | 444 kts | 184° |
| 2026-05-05 08:12 | 46.02765 | 19.69125 | 37032 ft | 444 kts | 184° |
| 2026-05-05 08:13 | 45.96592 | 19.68847 | 37034 ft | 444 kts | 184° |
| 2026-05-05 08:13 | 45.90408 | 19.68596 | 37035 ft | 444 kts | 184° |
| 2026-05-05 08:14 | 45.84224 | 19.68355 | 37029 ft | 445 kts | 184° |
| 2026-05-05 08:14 | 45.78033 | 19.68116 | 37032 ft | 445 kts | 184° |
| 2026-05-05 08:15 | 45.71838 | 19.67875 | 37031 ft | 445 kts | 184° |
| 2026-05-05 08:15 | 45.65645 | 19.67635 | 37024 ft | 446 kts | 184° |
| 2026-05-05 08:16 | 45.59444 | 19.67395 | 37033 ft | 445 kts | 184° |
| 2026-05-05 08:16 | 45.53209 | 19.67154 | 37026 ft | 445 kts | 184° |
| 2026-05-05 08:17 | 45.47020 | 19.66915 | 37024 ft | 445 kts | 184° |
| 2026-05-05 08:17 | 45.40842 | 19.66678 | 37024 ft | 444 kts | 184° |
| 2026-05-05 08:18 | 45.34716 | 19.66443 | 37022 ft | 443 kts | 184° |
| 2026-05-05 08:18 | 45.28560 | 19.66207 | 37039 ft | 442 kts | 184° |
| 2026-05-05 08:19 | 45.22368 | 19.65970 | 37022 ft | 442 kts | 184° |
| 2026-05-05 08:19 | 45.16219 | 19.65736 | 37031 ft | 442 kts | 184° |
| 2026-05-05 08:20 | 45.10076 | 19.65502 | 37029 ft | 442 kts | 184° |
| 2026-05-05 08:20 | 45.03931 | 19.65268 | 37024 ft | 442 kts | 184° |
| 2026-05-05 08:21 | 44.97789 | 19.65036 | 37039 ft | 442 kts | 184° |
| 2026-05-05 08:21 | 44.91640 | 19.64803 | 37039 ft | 442 kts | 184° |
| 2026-05-05 08:22 | 44.85486 | 19.64571 | 37029 ft | 443 kts | 184° |
| 2026-05-05 08:22 | 44.79363 | 19.64340 | 37036 ft | 443 kts | 184° |
| 2026-05-05 08:23 | 44.73187 | 19.64109 | 37038 ft | 444 kts | 185° |
| 2026-05-05 08:23 | 44.66968 | 19.63875 | 37032 ft | 445 kts | 185° |
| 2026-05-05 08:24 | 44.60817 | 19.63645 | 37035 ft | 445 kts | 185° |
| 2026-05-05 08:24 | 44.54620 | 19.63413 | 37036 ft | 446 kts | 185° |
| 2026-05-05 08:25 | 44.48409 | 19.63182 | 37037 ft | 447 kts | 185° |
| 2026-05-05 08:25 | 44.42190 | 19.62951 | 37038 ft | 447 kts | 185° |
| 2026-05-05 08:26 | 44.35971 | 19.62720 | 37045 ft | 447 kts | 185° |
| 2026-05-05 08:26 | 44.29744 | 19.62490 | 37047 ft | 447 kts | 185° |
| 2026-05-05 08:27 | 44.26625 | 19.62374 | 36724 ft | 452 kts | 185° |
| 2026-05-05 08:27 | 44.23481 | 19.62257 | 36269 ft | 450 kts | 185° |
| 2026-05-05 08:27 | 44.20357 | 19.62142 | 35719 ft | 449 kts | 185° |
| 2026-05-05 08:27 | 44.17232 | 19.62028 | 35102 ft | 450 kts | 184° |
| 2026-05-05 08:28 | 44.14096 | 19.61912 | 34524 ft | 451 kts | 184° |
| 2026-05-05 08:28 | 44.10954 | 19.61796 | 33874 ft | 452 kts | 184° |
| 2026-05-05 08:28 | 44.07807 | 19.61680 | 33171 ft | 453 kts | 184° |
| 2026-05-05 08:28 | 44.04654 | 19.61564 | 32501 ft | 453 kts | 184° |
| 2026-05-05 08:29 | 44.01504 | 19.61449 | 31811 ft | 453 kts | 184° |
| 2026-05-05 08:29 | 43.98353 | 19.61334 | 31135 ft | 454 kts | 184° |
| 2026-05-05 08:29 | 43.95205 | 19.61220 | 30625 ft | 451 kts | 184° |
| 2026-05-05 08:30 | 43.88987 | 19.60995 | 29571 ft | 443 kts | 183° |
| 2026-05-05 08:30 | 43.85924 | 19.60884 | 29065 ft | 438 kts | 183° |
| 2026-05-05 08:30 | 43.82898 | 19.60774 | 28563 ft | 433 kts | 183° |
| 2026-05-05 08:30 | 43.79861 | 19.60664 | 28060 ft | 429 kts | 183° |
| 2026-05-05 08:31 | 43.76892 | 19.60556 | 27554 ft | 425 kts | 183° |
| 2026-05-05 08:31 | 43.73953 | 19.60449 | 27076 ft | 421 kts | 183° |
| 2026-05-05 08:31 | 43.71033 | 19.60343 | 26600 ft | 419 kts | 183° |
| 2026-05-05 08:31 | 43.68128 | 19.60237 | 26112 ft | 417 kts | 183° |
| 2026-05-05 08:32 | 43.66213 | 19.60168 | 25789 ft | 415 kts | 183° |
| 2026-05-05 08:32 | 43.63339 | 19.60064 | 25314 ft | 412 kts | 183° |
| 2026-05-05 08:32 | 43.60476 | 19.59960 | 24844 ft | 411 kts | 183° |
| 2026-05-05 08:32 | 43.57616 | 19.59856 | 24363 ft | 411 kts | 183° |
| 2026-05-05 08:33 | 43.54768 | 19.59752 | 23898 ft | 408 kts | 183° |
| 2026-05-05 08:33 | 43.51927 | 19.59650 | 23350 ft | 407 kts | 183° |
| 2026-05-05 08:33 | 43.49109 | 19.59549 | 22826 ft | 404 kts | 183° |
| 2026-05-05 08:33 | 43.46305 | 19.59449 | 22334 ft | 401 kts | 183° |
| 2026-05-05 08:34 | 43.43529 | 19.59349 | 21850 ft | 397 kts | 183° |
| 2026-05-05 08:34 | 43.40779 | 19.59250 | 21383 ft | 394 kts | 182° |
| 2026-05-05 08:34 | 43.38049 | 19.59152 | 20919 ft | 391 kts | 182° |
| 2026-05-05 08:34 | 43.35341 | 19.59053 | 20458 ft | 388 kts | 182° |
| 2026-05-05 08:35 | 43.32657 | 19.58956 | 19991 ft | 385 kts | 182° |
| 2026-05-05 08:35 | 43.29947 | 19.58860 | 19543 ft | 383 kts | 182° |
| 2026-05-05 08:35 | 43.27289 | 19.58767 | 19070 ft | 381 kts | 182° |
| 2026-05-05 08:35 | 43.24641 | 19.58673 | 18622 ft | 379 kts | 182° |
| 2026-05-05 08:36 | 43.22010 | 19.58579 | 18120 ft | 378 kts | 182° |
| 2026-05-05 08:36 | 43.19392 | 19.58485 | 17625 ft | 375 kts | 182° |
| 2026-05-05 08:36 | 43.16790 | 19.58393 | 17137 ft | 373 kts | 182° |
| 2026-05-05 08:36 | 43.14246 | 19.58303 | 16674 ft | 369 kts | 182° |
| 2026-05-05 08:37 | 43.11683 | 19.58209 | 16225 ft | 367 kts | 182° |
| 2026-05-05 08:37 | 43.09108 | 19.58117 | 15771 ft | 365 kts | 182° |
| 2026-05-05 08:37 | 43.06578 | 19.58029 | 15313 ft | 363 kts | 182° |
| 2026-05-05 08:37 | 43.04061 | 19.57940 | 14869 ft | 361 kts | 182° |
| 2026-05-05 08:38 | 43.01561 | 19.57852 | 14433 ft | 359 kts | 182° |
| 2026-05-05 08:38 | 42.99100 | 19.57761 | 14003 ft | 358 kts | 182° |
| 2026-05-05 08:38 | 42.96610 | 19.57673 | 13470 ft | 357 kts | 182° |
| 2026-05-05 08:38 | 42.94144 | 19.57392 | 12992 ft | 355 kts | 194° |
| 2026-05-05 08:39 | 42.91849 | 19.56218 | 12561 ft | 351 kts | 204° |
| 2026-05-05 08:39 | 42.89615 | 19.54892 | 12107 ft | 349 kts | 204° |
| 2026-05-05 08:39 | 42.87401 | 19.53564 | 11667 ft | 346 kts | 204° |
| 2026-05-05 08:39 | 42.85202 | 19.52255 | 11240 ft | 343 kts | 204° |
| 2026-05-05 08:40 | 42.83021 | 19.50968 | 10783 ft | 341 kts | 203° |
| 2026-05-05 08:40 | 42.80853 | 19.49702 | 10511 ft | 334 kts | 203° |
| 2026-05-05 08:40 | 42.78755 | 19.48483 | 10313 ft | 319 kts | 203° |
| 2026-05-05 08:40 | 42.76755 | 19.47325 | 10175 ft | 308 kts | 203° |
| 2026-05-05 08:41 | 42.74813 | 19.46203 | 10044 ft | 298 kts | 203° |
| 2026-05-05 08:41 | 42.72934 | 19.45118 | 9930 ft | 287 kts | 203° |
| 2026-05-05 08:41 | 42.71132 | 19.44079 | 9554 ft | 280 kts | 203° |
| 2026-05-05 08:41 | 42.69351 | 19.43052 | 9268 ft | 277 kts | 203° |
| 2026-05-05 08:42 | 42.67579 | 19.42031 | 8959 ft | 276 kts | 203° |
| 2026-05-05 08:42 | 42.65808 | 19.41012 | 8655 ft | 276 kts | 203° |
| 2026-05-05 08:42 | 42.64049 | 19.39999 | 8453 ft | 272 kts | 203° |
| 2026-05-05 08:42 | 42.62338 | 19.39017 | 8297 ft | 261 kts | 203° |
| 2026-05-05 08:43 | 42.60906 | 19.38196 | 8105 ft | 255 kts | 203° |
| 2026-05-05 08:43 | 42.59273 | 19.37261 | 7837 ft | 255 kts | 203° |
| 2026-05-05 08:43 | 42.57639 | 19.36324 | 7582 ft | 255 kts | 204° |
| 2026-05-05 08:43 | 42.56011 | 19.35391 | 7393 ft | 252 kts | 204° |
| 2026-05-05 08:44 | 42.54417 | 19.34477 | 7277 ft | 246 kts | 204° |
| 2026-05-05 08:44 | 42.52842 | 19.33628 | 7121 ft | 242 kts | 195° |
| 2026-05-05 08:44 | 42.51165 | 19.33374 | 6897 ft | 243 kts | 184° |
| 2026-05-05 08:44 | 42.49477 | 19.33244 | 6657 ft | 243 kts | 185° |
| 2026-05-05 08:45 | 42.47789 | 19.33090 | 6386 ft | 244 kts | 185° |
| 2026-05-05 08:45 | 42.46097 | 19.32924 | 6128 ft | 245 kts | 185° |
| 2026-05-05 08:45 | 42.44395 | 19.32751 | 5869 ft | 245 kts | 185° |
| 2026-05-05 08:45 | 42.42692 | 19.32575 | 5610 ft | 246 kts | 185° |
| 2026-05-05 08:46 | 42.40992 | 19.32402 | 5352 ft | 245 kts | 185° |
| 2026-05-05 08:46 | 42.39297 | 19.32228 | 5096 ft | 241 kts | 185° |
| 2026-05-05 08:46 | 42.37672 | 19.32061 | 4998 ft | 229 kts | 185° |
| 2026-05-05 08:46 | 42.36105 | 19.31903 | 4736 ft | 223 kts | 185° |
| 2026-05-05 08:47 | 42.34581 | 19.31745 | 4532 ft | 216 kts | 185° |
| 2026-05-05 08:47 | 42.33274 | 19.31609 | 4329 ft | 213 kts | 185° |
| 2026-05-05 08:47 | 42.32183 | 19.31409 | 4038 ft | 213 kts | 185° |
| 2026-05-05 08:47 | 42.30739 | 19.31271 | 3950 ft | 209 kts | 184° |
| 2026-05-05 08:48 | 42.29305 | 19.31139 | 3768 ft | 204 kts | 184° |
| 2026-05-05 08:48 | 42.27889 | 19.31021 | 3480 ft | 203 kts | 184° |
| 2026-05-05 08:48 | 42.26493 | 19.30886 | 3244 ft | 199 kts | 184° |
| 2026-05-05 08:48 | 42.25177 | 19.30592 | 2996 ft | 188 kts | 207° |
| 2026-05-05 08:49 | 42.24305 | 19.29404 | 2854 ft | 176 kts | 241° |
| 2026-05-05 08:49 | 42.23996 | 19.27868 | 2663 ft | 165 kts | 268° |
| 2026-05-05 08:49 | 42.24064 | 19.26360 | 2519 ft | 160 kts | 272° |
| 2026-05-05 08:49 | 42.24236 | 19.24882 | 2262 ft | 161 kts | 298° |
| 2026-05-05 08:50 | 42.25121 | 19.24085 | 2134 ft | 160 kts | 357° |
| 2026-05-05 08:50 | 42.26252 | 19.24256 | 1929 ft | 168 kts | 4° |
| 2026-05-05 08:50 | 42.27390 | 19.24280 | 1698 ft | 158 kts | 4° |
| 2026-05-05 08:50 | 42.28458 | 19.24413 | 1465 ft | 151 kts | 5° |
| 2026-05-05 08:51 | 42.29485 | 19.24503 | 1286 ft | 148 kts | 1° |
| 2026-05-05 08:51 | 42.30518 | 19.24628 | 1075 ft | 149 kts | 8° |
| 2026-05-05 08:51 | 42.31544 | 19.24787 | 908 ft | 147 kts | 4° |
| 2026-05-05 08:51 | 42.32574 | 19.24864 | 678 ft | 149 kts | 3° |
| 2026-05-05 08:52 | 42.33612 | 19.24950 | 410 ft | 148 kts | 5° |
| 2026-05-05 08:52 | 42.34627 | 19.25053 | 180 ft | 145 kts | 4° |
| 2026-05-05 08:52 | 42.35397 | 19.25129 | 108 ft | 129 kts | 5° |
| 2026-05-05 08:52 | 42.36028 | 19.25195 | 104 ft | 68 kts | 4° |
| 2026-05-05 08:53 | 42.36308 | 19.25223 | 108 ft | 29 kts | 5° |
| 2026-05-05 08:53 | 42.36485 | 19.25243 | 112 ft | 23 kts | 5° |
| 2026-05-05 08:53 | 42.36614 | 19.25191 | 108 ft | 19 kts | 288° |
| 2026-05-05 08:53 | 42.36628 | 19.25040 | 110 ft | 17 kts | 276° |
| 2026-05-05 08:54 | 42.36637 | 19.24890 | 105 ft | 10 kts | 275° |
| 2026-05-05 08:54 | 42.36666 | 19.24832 | 104 ft | 5 kts | 338° |
| 2026-05-05 08:54 | 42.36681 | 19.24782 | 105 ft | 7 kts | 275° |
| 2026-05-05 08:54 | 42.36687 | 19.24752 | 105 ft | 2 kts | 307° |
| 2026-05-05 08:55 | 42.36692 | 19.24746 | 105 ft | 0 kts | 318° |
| 2026-05-05 08:55 | 42.36694 | 19.24744 | 105 ft | 0 kts | 319° |